sensor_id;sensor_type;location;lat;lon;timestamp;temperature;humidity
3715;DHT22;1873;49.988;8.674;2022-10-24T00:01:40;14.70;99.90
3715;DHT22;1873;49.988;8.674;2022-10-24T00:04:08;14.60;99.90
3715;DHT22;1873;49.988;8.674;2022-10-24T00:06:38;14.60;99.90
3715;DHT22;1873;49.988;8.674;2022-10-24T00:09:09;14.60;99.90
3715;DHT22;1873;49.988;8.674;2022-10-24T00:11:37;14.60;99.90
3715;DHT22;1873;49.988;8.674;2022-10-24T00:14:08;14.60;99.90
3715;DHT22;1873;49.988;8.674;2022-10-24T00:16:37;14.60;99.90
3715;DHT22;1873;49.988;8.674;2022-10-24T00:19:06;14.60;99.90
3715;DHT22;1873;49.988;8.674;2022-10-24T00:21:34;14.60;99.90
3715;DHT22;1873;49.988;8.674;2022-10-24T00:24:03;14.60;99.90
3715;DHT22;1873;49.988;8.674;2022-10-24T00:26:34;14.60;99.90
3715;DHT22;1873;49.988;8.674;2022-10-24T00:29:05;14.60;99.90
3715;DHT22;1873;49.988;8.674;2022-10-24T00:31:34;14.60;99.90
3715;DHT22;1873;49.988;8.674;2022-10-24T00:34:04;14.60;99.90
3715;DHT22;1873;49.988;8.674;2022-10-24T00:36:33;14.60;99.90
3715;DHT22;1873;49.988;8.674;2022-10-24T00:39:02;14.60;99.90
3715;DHT22;1873;49.988;8.674;2022-10-24T00:41:34;14.60;99.90
3715;DHT22;1873;49.988;8.674;2022-10-24T00:44:19;14.70;99.90
3715;DHT22;1873;49.988;8.674;2022-10-24T00:46:51;14.60;99.90
3715;DHT22;1873;49.988;8.674;2022-10-24T00:49:22;14.60;99.90
3715;DHT22;1873;49.988;8.674;2022-10-24T00:51:54;14.60;99.90
3715;DHT22;1873;49.988;8.674;2022-10-24T00:54:23;14.60;99.90
3715;DHT22;1873;49.988;8.674;2022-10-24T00:57:02;14.60;99.90
3715;DHT22;1873;49.988;8.674;2022-10-24T00:59:32;14.60;99.90
3715;DHT22;1873;49.988;8.674;2022-10-24T01:02:00;14.60;99.90
3715;DHT22;1873;49.988;8.674;2022-10-24T01:04:29;14.60;99.90
3715;DHT22;1873;49.988;8.674;2022-10-24T01:07:09;14.60;99.90
3715;DHT22;1873;49.988;8.674;2022-10-24T01:10:02;14.50;99.90
3715;DHT22;1873;49.988;8.674;2022-10-24T01:12:39;14.50;99.90
3715;DHT22;1873;49.988;8.674;2022-10-24T01:15:18;14.50;99.90
3715;DHT22;1873;49.988;8.674;2022-10-24T01:17:54;14.50;99.90
3715;DHT22;1873;49.988;8.674;2022-10-24T01:23:26;14.40;99.90
3715;DHT22;1873;49.988;8.674;2022-10-24T01:29:02;14.40;99.90
3715;DHT22;1873;49.988;8.674;2022-10-24T01:31:39;14.40;99.90
3715;DHT22;1873;49.988;8.674;2022-10-24T01:34:14;14.40;99.90
3715;DHT22;1873;49.988;8.674;2022-10-24T01:36:49;14.30;99.90
3715;DHT22;1873;49.988;8.674;2022-10-24T01:39:21;14.30;99.90
3715;DHT22;1873;49.988;8.674;2022-10-24T01:41:53;14.30;99.90
3715;DHT22;1873;49.988;8.674;2022-10-24T01:44:25;14.20;99.90
3715;DHT22;1873;49.988;8.674;2022-10-24T01:46:58;14.20;99.90
3715;DHT22;1873;49.988;8.674;2022-10-24T01:49:33;14.20;99.90
3715;DHT22;1873;49.988;8.674;2022-10-24T01:52:06;14.10;99.90
3715;DHT22;1873;49.988;8.674;2022-10-24T01:54:36;14.10;99.90
3715;DHT22;1873;49.988;8.674;2022-10-24T01:57:06;14.10;99.90
3715;DHT22;1873;49.988;8.674;2022-10-24T01:59:43;14.20;99.90
3715;DHT22;1873;49.988;8.674;2022-10-24T02:02:17;14.20;99.90
3715;DHT22;1873;49.988;8.674;2022-10-24T02:04:50;14.20;99.90
3715;DHT22;1873;49.988;8.674;2022-10-24T02:07:20;14.20;99.90
3715;DHT22;1873;49.988;8.674;2022-10-24T02:09:53;14.20;99.90
3715;DHT22;1873;49.988;8.674;2022-10-24T02:12:25;14.30;99.90
3715;DHT22;1873;49.988;8.674;2022-10-24T02:14:58;14.30;99.90
3715;DHT22;1873;49.988;8.674;2022-10-24T02:17:30;14.30;99.90
3715;DHT22;1873;49.988;8.674;2022-10-24T02:19:59;14.20;99.90
3715;DHT22;1873;49.988;8.674;2022-10-24T02:22:32;14.30;99.90
3715;DHT22;1873;49.988;8.674;2022-10-24T02:25:08;14.20;99.90
3715;DHT22;1873;49.988;8.674;2022-10-24T02:27:39;14.20;99.90
3715;DHT22;1873;49.988;8.674;2022-10-24T02:30:11;14.20;99.90
3715;DHT22;1873;49.988;8.674;2022-10-24T02:32:46;14.30;99.90
3715;DHT22;1873;49.988;8.674;2022-10-24T02:35:18;14.20;99.90
3715;DHT22;1873;49.988;8.674;2022-10-24T02:37:50;14.10;99.90
3715;DHT22;1873;49.988;8.674;2022-10-24T02:40:21;14.10;99.90
3715;DHT22;1873;49.988;8.674;2022-10-24T02:42:51;14.10;99.90
3715;DHT22;1873;49.988;8.674;2022-10-24T02:45:24;14.10;99.90
3715;DHT22;1873;49.988;8.674;2022-10-24T02:47:58;14.00;99.90
3715;DHT22;1873;49.988;8.674;2022-10-24T02:50:29;14.00;99.90
3715;DHT22;1873;49.988;8.674;2022-10-24T02:52:58;14.00;99.90
3715;DHT22;1873;49.988;8.674;2022-10-24T02:55:27;14.00;99.90
3715;DHT22;1873;49.988;8.674;2022-10-24T02:57:55;14.00;99.90
3715;DHT22;1873;49.988;8.674;2022-10-24T03:00:23;14.00;99.90
3715;DHT22;1873;49.988;8.674;2022-10-24T03:02:53;13.90;99.90
3715;DHT22;1873;49.988;8.674;2022-10-24T03:05:21;13.90;99.90
3715;DHT22;1873;49.988;8.674;2022-10-24T03:07:49;14.00;99.90
3715;DHT22;1873;49.988;8.674;2022-10-24T03:10:18;13.90;99.90
3715;DHT22;1873;49.988;8.674;2022-10-24T03:12:46;13.90;99.90
3715;DHT22;1873;49.988;8.674;2022-10-24T03:15:15;13.80;99.90
3715;DHT22;1873;49.988;8.674;2022-10-24T03:17:43;13.80;99.90
3715;DHT22;1873;49.988;8.674;2022-10-24T03:20:16;13.90;99.90
3715;DHT22;1873;49.988;8.674;2022-10-24T03:22:44;13.80;99.90
3715;DHT22;1873;49.988;8.674;2022-10-24T03:25:14;13.80;99.90
3715;DHT22;1873;49.988;8.674;2022-10-24T03:27:42;13.80;99.90
3715;DHT22;1873;49.988;8.674;2022-10-24T03:30:12;13.90;99.90
3715;DHT22;1873;49.988;8.674;2022-10-24T03:32:40;13.80;99.90
3715;DHT22;1873;49.988;8.674;2022-10-24T03:35:09;13.80;99.90
3715;DHT22;1873;49.988;8.674;2022-10-24T03:37:42;13.80;99.90
3715;DHT22;1873;49.988;8.674;2022-10-24T03:40:10;13.80;99.90
3715;DHT22;1873;49.988;8.674;2022-10-24T03:42:39;13.80;99.90
3715;DHT22;1873;49.988;8.674;2022-10-24T03:45:08;13.80;99.90
3715;DHT22;1873;49.988;8.674;2022-10-24T03:47:36;13.80;99.90
3715;DHT22;1873;49.988;8.674;2022-10-24T03:50:06;13.90;99.90
3715;DHT22;1873;49.988;8.674;2022-10-24T03:52:35;13.80;99.90
3715;DHT22;1873;49.988;8.674;2022-10-24T03:55:06;13.80;99.90
3715;DHT22;1873;49.988;8.674;2022-10-24T03:57:35;13.80;99.90
3715;DHT22;1873;49.988;8.674;2022-10-24T04:00:06;13.80;99.90
3715;DHT22;1873;49.988;8.674;2022-10-24T04:02:34;13.90;99.90
3715;DHT22;1873;49.988;8.674;2022-10-24T04:05:07;13.90;99.90
3715;DHT22;1873;49.988;8.674;2022-10-24T04:07:35;13.80;99.90
3715;DHT22;1873;49.988;8.674;2022-10-24T04:10:06;13.80;99.90
3715;DHT22;1873;49.988;8.674;2022-10-24T04:12:34;13.70;99.90
3715;DHT22;1873;49.988;8.674;2022-10-24T04:15:06;13.80;99.90
3715;DHT22;1873;49.988;8.674;2022-10-24T04:17:35;13.80;99.90
3715;DHT22;1873;49.988;8.674;2022-10-24T04:20:04;13.90;99.90
3715;DHT22;1873;49.988;8.674;2022-10-24T04:22:33;13.90;99.90
3715;DHT22;1873;49.988;8.674;2022-10-24T04:25:01;14.00;99.90
3715;DHT22;1873;49.988;8.674;2022-10-24T04:27:31;14.00;99.90
3715;DHT22;1873;49.988;8.674;2022-10-24T04:30:00;14.00;99.90
3715;DHT22;1873;49.988;8.674;2022-10-24T04:32:28;13.90;99.90
3715;DHT22;1873;49.988;8.674;2022-10-24T04:34:56;13.90;99.90
3715;DHT22;1873;49.988;8.674;2022-10-24T04:37:24;14.00;99.90
3715;DHT22;1873;49.988;8.674;2022-10-24T04:39:53;14.00;99.90
3715;DHT22;1873;49.988;8.674;2022-10-24T04:42:21;14.00;99.90
3715;DHT22;1873;49.988;8.674;2022-10-24T04:44:51;14.00;99.90
3715;DHT22;1873;49.988;8.674;2022-10-24T04:47:19;14.00;99.90
3715;DHT22;1873;49.988;8.674;2022-10-24T04:49:47;14.00;99.90
3715;DHT22;1873;49.988;8.674;2022-10-24T04:52:16;14.00;99.90
3715;DHT22;1873;49.988;8.674;2022-10-24T04:54:44;14.10;99.90
3715;DHT22;1873;49.988;8.674;2022-10-24T04:57:12;14.10;99.90
3715;DHT22;1873;49.988;8.674;2022-10-24T04:59:40;14.10;99.90
3715;DHT22;1873;49.988;8.674;2022-10-24T05:02:10;14.10;99.90
3715;DHT22;1873;49.988;8.674;2022-10-24T05:04:38;14.20;99.90
3715;DHT22;1873;49.988;8.674;2022-10-24T05:07:07;14.20;99.90
3715;DHT22;1873;49.988;8.674;2022-10-24T05:09:35;14.20;99.90
3715;DHT22;1873;49.988;8.674;2022-10-24T05:12:03;14.20;99.90
3715;DHT22;1873;49.988;8.674;2022-10-24T05:14:32;14.20;99.90
3715;DHT22;1873;49.988;8.674;2022-10-24T05:17:00;14.20;99.90
3715;DHT22;1873;49.988;8.674;2022-10-24T05:19:31;14.20;99.90
3715;DHT22;1873;49.988;8.674;2022-10-24T05:21:59;14.20;99.90
3715;DHT22;1873;49.988;8.674;2022-10-24T05:24:32;14.20;99.90
3715;DHT22;1873;49.988;8.674;2022-10-24T05:27:01;14.20;99.90
3715;DHT22;1873;49.988;8.674;2022-10-24T05:29:30;14.20;99.90
3715;DHT22;1873;49.988;8.674;2022-10-24T05:31:58;14.20;99.90
3715;DHT22;1873;49.988;8.674;2022-10-24T05:34:26;14.20;99.90
3715;DHT22;1873;49.988;8.674;2022-10-24T05:36:56;14.20;99.90
3715;DHT22;1873;49.988;8.674;2022-10-24T05:39:24;14.20;99.90
3715;DHT22;1873;49.988;8.674;2022-10-24T05:41:53;14.20;99.90
3715;DHT22;1873;49.988;8.674;2022-10-24T05:44:22;14.10;99.90
3715;DHT22;1873;49.988;8.674;2022-10-24T05:46:50;14.10;99.90
3715;DHT22;1873;49.988;8.674;2022-10-24T05:49:19;14.10;99.90
3715;DHT22;1873;49.988;8.674;2022-10-24T05:51:47;14.10;99.90
3715;DHT22;1873;49.988;8.674;2022-10-24T05:54:17;14.10;99.90
3715;DHT22;1873;49.988;8.674;2022-10-24T05:56:45;14.10;99.90
3715;DHT22;1873;49.988;8.674;2022-10-24T05:59:13;14.10;99.90
3715;DHT22;1873;49.988;8.674;2022-10-24T06:01:42;14.10;99.90
3715;DHT22;1873;49.988;8.674;2022-10-24T06:04:10;14.10;99.90
3715;DHT22;1873;49.988;8.674;2022-10-24T06:06:40;14.10;99.90
3715;DHT22;1873;49.988;8.674;2022-10-24T06:09:10;14.10;99.90
3715;DHT22;1873;49.988;8.674;2022-10-24T06:18:57;14.10;99.90
3715;DHT22;1873;49.988;8.674;2022-10-24T06:21:40;14.10;99.90
3715;DHT22;1873;49.988;8.674;2022-10-24T06:24:34;14.00;99.90
3715;DHT22;1873;49.988;8.674;2022-10-24T06:27:12;14.00;99.90
3715;DHT22;1873;49.988;8.674;2022-10-24T06:29:56;14.00;99.90
3715;DHT22;1873;49.988;8.674;2022-10-24T06:45:38;14.00;99.90
3715;DHT22;1873;49.988;8.674;2022-10-24T06:48:44;14.10;99.90
3715;DHT22;1873;49.988;8.674;2022-10-24T06:51:13;14.20;99.90
3715;DHT22;1873;49.988;8.674;2022-10-24T06:53:44;14.20;99.90
3715;DHT22;1873;49.988;8.674;2022-10-24T07:00:03;14.20;99.90
3715;DHT22;1873;49.988;8.674;2022-10-24T07:02:45;14.30;99.90
3715;DHT22;1873;49.988;8.674;2022-10-24T07:05:35;14.30;99.90
3715;DHT22;1873;49.988;8.674;2022-10-24T07:26:47;14.40;99.90
3715;DHT22;1873;49.988;8.674;2022-10-24T07:29:57;14.50;99.90
3715;DHT22;1873;49.988;8.674;2022-10-24T07:32:31;14.70;99.90
3715;DHT22;1873;49.988;8.674;2022-10-24T07:35:02;14.80;99.90
3715;DHT22;1873;49.988;8.674;2022-10-24T07:37:31;15.00;99.90
3715;DHT22;1873;49.988;8.674;2022-10-24T07:40:03;15.10;99.90
3715;DHT22;1873;49.988;8.674;2022-10-24T07:42:33;15.20;99.90
3715;DHT22;1873;49.988;8.674;2022-10-24T07:45:02;15.20;99.90
3715;DHT22;1873;49.988;8.674;2022-10-24T07:47:31;15.20;99.90
3715;DHT22;1873;49.988;8.674;2022-10-24T07:50:00;15.30;99.90
3715;DHT22;1873;49.988;8.674;2022-10-24T07:52:33;15.30;99.90
3715;DHT22;1873;49.988;8.674;2022-10-24T07:55:02;15.30;99.90
3715;DHT22;1873;49.988;8.674;2022-10-24T07:57:34;15.30;99.90
3715;DHT22;1873;49.988;8.674;2022-10-24T08:00:08;15.40;99.90
3715;DHT22;1873;49.988;8.674;2022-10-24T08:02:36;15.40;99.90
3715;DHT22;1873;49.988;8.674;2022-10-24T08:05:08;15.50;99.90
3715;DHT22;1873;49.988;8.674;2022-10-24T08:07:49;15.50;99.90
3715;DHT22;1873;49.988;8.674;2022-10-24T08:10:37;15.60;99.90
3715;DHT22;1873;49.988;8.674;2022-10-24T08:13:07;15.60;99.90
3715;DHT22;1873;49.988;8.674;2022-10-24T08:15:39;15.70;99.90
3715;DHT22;1873;49.988;8.674;2022-10-24T08:18:07;15.80;99.90
3715;DHT22;1873;49.988;8.674;2022-10-24T08:20:36;15.80;99.90
3715;DHT22;1873;49.988;8.674;2022-10-24T08:23:24;15.90;99.90
3715;DHT22;1873;49.988;8.674;2022-10-24T08:25:54;15.90;99.90
3715;DHT22;1873;49.988;8.674;2022-10-24T08:28:31;16.00;99.90
3715;DHT22;1873;49.988;8.674;2022-10-24T08:31:03;16.10;99.90
3715;DHT22;1873;49.988;8.674;2022-10-24T08:33:35;16.20;99.90
3715;DHT22;1873;49.988;8.674;2022-10-24T08:36:21;16.30;99.90
3715;DHT22;1873;49.988;8.674;2022-10-24T08:39:02;16.30;99.90
3715;DHT22;1873;49.988;8.674;2022-10-24T08:42:16;16.40;99.90
3715;DHT22;1873;49.988;8.674;2022-10-24T08:44:52;16.40;99.90
3715;DHT22;1873;49.988;8.674;2022-10-24T08:47:28;16.50;99.90
3715;DHT22;1873;49.988;8.674;2022-10-24T08:50:03;16.50;99.90
3715;DHT22;1873;49.988;8.674;2022-10-24T08:52:59;16.50;99.90
3715;DHT22;1873;49.988;8.674;2022-10-24T08:55:36;16.60;99.90
3715;DHT22;1873;49.988;8.674;2022-10-24T09:06:20;16.90;99.90
3715;DHT22;1873;49.988;8.674;2022-10-24T09:08:56;17.10;99.90
3715;DHT22;1873;49.988;8.674;2022-10-24T09:11:44;17.30;99.90
3715;DHT22;1873;49.988;8.674;2022-10-24T09:18:11;17.70;99.90
3715;DHT22;1873;49.988;8.674;2022-10-24T09:21:01;17.80;99.90
3715;DHT22;1873;49.988;8.674;2022-10-24T09:24:47;18.10;99.90
3715;DHT22;1873;49.988;8.674;2022-10-24T09:30:36;18.40;99.90
3715;DHT22;1873;49.988;8.674;2022-10-24T09:37:39;18.20;99.90
3715;DHT22;1873;49.988;8.674;2022-10-24T09:40:33;18.00;99.90
3715;DHT22;1873;49.988;8.674;2022-10-24T09:43:12;17.90;99.90
3715;DHT22;1873;49.988;8.674;2022-10-24T09:45:43;17.90;99.90
3715;DHT22;1873;49.988;8.674;2022-10-24T09:48:23;17.90;99.90
3715;DHT22;1873;49.988;8.674;2022-10-24T09:50:56;17.90;99.90
3715;DHT22;1873;49.988;8.674;2022-10-24T09:53:31;17.80;99.90
3715;DHT22;1873;49.988;8.674;2022-10-24T09:56:07;17.80;99.90
3715;DHT22;1873;49.988;8.674;2022-10-24T09:58:44;17.80;99.90
3715;DHT22;1873;49.988;8.674;2022-10-24T10:01:20;17.80;99.90
3715;DHT22;1873;49.988;8.674;2022-10-24T10:04:35;17.80;99.90
3715;DHT22;1873;49.988;8.674;2022-10-24T10:07:08;17.80;99.90
3715;DHT22;1873;49.988;8.674;2022-10-24T10:09:47;17.90;99.90
3715;DHT22;1873;49.988;8.674;2022-10-24T10:12:27;17.90;99.90
3715;DHT22;1873;49.988;8.674;2022-10-24T10:14:56;18.00;99.90
3715;DHT22;1873;49.988;8.674;2022-10-24T10:17:26;18.00;99.90
3715;DHT22;1873;49.988;8.674;2022-10-24T10:19:57;17.90;99.90
3715;DHT22;1873;49.988;8.674;2022-10-24T10:22:28;17.90;99.90
3715;DHT22;1873;49.988;8.674;2022-10-24T10:24:59;18.00;99.90
3715;DHT22;1873;49.988;8.674;2022-10-24T10:27:33;18.00;99.90
3715;DHT22;1873;49.988;8.674;2022-10-24T10:30:17;18.20;99.90
3715;DHT22;1873;49.988;8.674;2022-10-24T10:32:56;18.40;99.90
3715;DHT22;1873;49.988;8.674;2022-10-24T10:35:30;18.60;99.90
3715;DHT22;1873;49.988;8.674;2022-10-24T10:38:15;18.60;99.90
3715;DHT22;1873;49.988;8.674;2022-10-24T10:40:52;18.70;99.90
3715;DHT22;1873;49.988;8.674;2022-10-24T10:43:30;18.70;99.90
3715;DHT22;1873;49.988;8.674;2022-10-24T10:46:11;18.70;99.90
3715;DHT22;1873;49.988;8.674;2022-10-24T10:48:51;18.70;99.90
3715;DHT22;1873;49.988;8.674;2022-10-24T10:51:27;18.70;99.90
3715;DHT22;1873;49.988;8.674;2022-10-24T10:54:03;18.90;99.90
3715;DHT22;1873;49.988;8.674;2022-10-24T10:56:41;19.10;99.90
3715;DHT22;1873;49.988;8.674;2022-10-24T10:59:27;19.20;99.90
3715;DHT22;1873;49.988;8.674;2022-10-24T11:02:23;19.20;99.90
3715;DHT22;1873;49.988;8.674;2022-10-24T11:05:07;19.20;99.90
3715;DHT22;1873;49.988;8.674;2022-10-24T11:07:52;19.30;99.90
3715;DHT22;1873;49.988;8.674;2022-10-24T11:10:28;19.30;99.90
3715;DHT22;1873;49.988;8.674;2022-10-24T11:13:17;19.30;99.90
3715;DHT22;1873;49.988;8.674;2022-10-24T11:15:49;19.40;99.90
3715;DHT22;1873;49.988;8.674;2022-10-24T11:18:22;19.50;99.90
3715;DHT22;1873;49.988;8.674;2022-10-24T11:20:58;19.50;99.90
3715;DHT22;1873;49.988;8.674;2022-10-24T11:26:51;19.40;99.90
3715;DHT22;1873;49.988;8.674;2022-10-24T11:32:16;19.40;99.90
3715;DHT22;1873;49.988;8.674;2022-10-24T11:35:19;19.40;99.90
3715;DHT22;1873;49.988;8.674;2022-10-24T11:37:57;19.30;99.90
3715;DHT22;1873;49.988;8.674;2022-10-24T11:40:34;19.20;99.90
3715;DHT22;1873;49.988;8.674;2022-10-24T11:46:19;19.20;99.90
3715;DHT22;1873;49.988;8.674;2022-10-24T11:48:53;19.10;99.90
3715;DHT22;1873;49.988;8.674;2022-10-24T11:51:44;19.20;99.90
3715;DHT22;1873;49.988;8.674;2022-10-24T11:54:21;19.10;99.90
3715;DHT22;1873;49.988;8.674;2022-10-24T11:56:57;19.10;99.90
3715;DHT22;1873;49.988;8.674;2022-10-24T11:59:26;19.30;99.90
3715;DHT22;1873;49.988;8.674;2022-10-24T12:05:27;19.40;99.90
3715;DHT22;1873;49.988;8.674;2022-10-24T12:14:34;19.70;99.90
3715;DHT22;1873;49.988;8.674;2022-10-24T12:17:26;19.70;99.90
3715;DHT22;1873;49.988;8.674;2022-10-24T12:20:03;19.70;99.90
3715;DHT22;1873;49.988;8.674;2022-10-24T12:22:56;19.70;99.90
3715;DHT22;1873;49.988;8.674;2022-10-24T12:25:29;19.70;99.90
3715;DHT22;1873;49.988;8.674;2022-10-24T12:28:01;19.70;99.90
3715;DHT22;1873;49.988;8.674;2022-10-24T12:30:31;19.70;99.90
3715;DHT22;1873;49.988;8.674;2022-10-24T12:33:11;19.60;99.90
3715;DHT22;1873;49.988;8.674;2022-10-24T12:35:47;19.70;99.90
3715;DHT22;1873;49.988;8.674;2022-10-24T12:41:40;19.50;99.90
3715;DHT22;1873;49.988;8.674;2022-10-24T12:47:33;19.50;99.90
3715;DHT22;1873;49.988;8.674;2022-10-24T13:00:55;19.60;99.90
3715;DHT22;1873;49.988;8.674;2022-10-24T13:15:02;19.70;99.90
3715;DHT22;1873;49.988;8.674;2022-10-24T13:17:44;19.60;99.90
3715;DHT22;1873;49.988;8.674;2022-10-24T13:31:55;19.40;99.90
3715;DHT22;1873;49.988;8.674;2022-10-24T13:35:34;19.40;99.90
3715;DHT22;1873;49.988;8.674;2022-10-24T13:38:07;19.40;99.90
3715;DHT22;1873;49.988;8.674;2022-10-24T13:41:07;19.40;99.90
3715;DHT22;1873;49.988;8.674;2022-10-24T13:44:28;19.40;99.90
3715;DHT22;1873;49.988;8.674;2022-10-24T13:47:04;19.30;99.90
3715;DHT22;1873;49.988;8.674;2022-10-24T13:49:37;19.30;99.90
3715;DHT22;1873;49.988;8.674;2022-10-24T13:52:14;19.30;99.90
3715;DHT22;1873;49.988;8.674;2022-10-24T13:54:48;19.20;99.90
3715;DHT22;1873;49.988;8.674;2022-10-24T13:57:28;19.20;99.90
3715;DHT22;1873;49.988;8.674;2022-10-24T14:00:01;19.10;99.90
3715;DHT22;1873;49.988;8.674;2022-10-24T14:02:36;19.10;99.90
3715;DHT22;1873;49.988;8.674;2022-10-24T14:05:16;19.10;99.90
3715;DHT22;1873;49.988;8.674;2022-10-24T14:07:46;19.10;99.90
3715;DHT22;1873;49.988;8.674;2022-10-24T14:10:16;19.00;99.90
3715;DHT22;1873;49.988;8.674;2022-10-24T14:12:45;19.00;99.90
3715;DHT22;1873;49.988;8.674;2022-10-24T14:15:18;18.90;99.90
3715;DHT22;1873;49.988;8.674;2022-10-24T14:17:56;18.90;99.90
3715;DHT22;1873;49.988;8.674;2022-10-24T14:20:28;18.90;99.90
3715;DHT22;1873;49.988;8.674;2022-10-24T14:22:58;18.80;99.90
3715;DHT22;1873;49.988;8.674;2022-10-24T14:25:29;18.80;99.90
3715;DHT22;1873;49.988;8.674;2022-10-24T14:28:01;18.80;99.90
3715;DHT22;1873;49.988;8.674;2022-10-24T14:30:30;18.70;99.90
3715;DHT22;1873;49.988;8.674;2022-10-24T14:33:23;18.70;99.90
3715;DHT22;1873;49.988;8.674;2022-10-24T14:35:53;18.70;99.90
3715;DHT22;1873;49.988;8.674;2022-10-24T14:38:26;18.70;99.90
3715;DHT22;1873;49.988;8.674;2022-10-24T14:40:56;18.60;99.90
3715;DHT22;1873;49.988;8.674;2022-10-24T14:43:36;18.60;99.90
3715;DHT22;1873;49.988;8.674;2022-10-24T14:46:33;18.60;99.90
3715;DHT22;1873;49.988;8.674;2022-10-24T14:49:21;18.60;99.90
3715;DHT22;1873;49.988;8.674;2022-10-24T14:51:51;18.60;99.90
3715;DHT22;1873;49.988;8.674;2022-10-24T14:54:24;18.60;99.90
3715;DHT22;1873;49.988;8.674;2022-10-24T14:56:53;18.60;99.90
3715;DHT22;1873;49.988;8.674;2022-10-24T14:59:25;18.60;99.90
3715;DHT22;1873;49.988;8.674;2022-10-24T15:01:57;18.50;99.90
3715;DHT22;1873;49.988;8.674;2022-10-24T15:04:28;18.60;99.90
3715;DHT22;1873;49.988;8.674;2022-10-24T15:07:12;18.60;99.90
3715;DHT22;1873;49.988;8.674;2022-10-24T15:09:54;18.60;99.90
3715;DHT22;1873;49.988;8.674;2022-10-24T15:12:26;18.50;99.90
3715;DHT22;1873;49.988;8.674;2022-10-24T15:14:59;18.50;99.90
3715;DHT22;1873;49.988;8.674;2022-10-24T15:17:49;18.50;99.90
3715;DHT22;1873;49.988;8.674;2022-10-24T15:20:20;18.50;99.90
3715;DHT22;1873;49.988;8.674;2022-10-24T15:22:58;18.50;99.90
3715;DHT22;1873;49.988;8.674;2022-10-24T15:25:30;18.50;99.90
3715;DHT22;1873;49.988;8.674;2022-10-24T15:28:03;18.40;99.90
3715;DHT22;1873;49.988;8.674;2022-10-24T15:30:34;18.40;99.90
3715;DHT22;1873;49.988;8.674;2022-10-24T15:33:04;18.40;99.90
3715;DHT22;1873;49.988;8.674;2022-10-24T15:35:38;18.30;99.90
3715;DHT22;1873;49.988;8.674;2022-10-24T15:38:13;18.30;99.90
3715;DHT22;1873;49.988;8.674;2022-10-24T15:40:45;18.30;99.90
3715;DHT22;1873;49.988;8.674;2022-10-24T15:43:17;18.30;99.90
3715;DHT22;1873;49.988;8.674;2022-10-24T15:45:46;18.20;99.90
3715;DHT22;1873;49.988;8.674;2022-10-24T15:48:15;18.20;99.90
3715;DHT22;1873;49.988;8.674;2022-10-24T15:50:44;18.20;99.90
3715;DHT22;1873;49.988;8.674;2022-10-24T15:53:17;18.20;99.90
3715;DHT22;1873;49.988;8.674;2022-10-24T15:55:48;18.10;99.90
3715;DHT22;1873;49.988;8.674;2022-10-24T15:58:17;18.10;99.90
3715;DHT22;1873;49.988;8.674;2022-10-24T16:00:45;18.10;99.90
3715;DHT22;1873;49.988;8.674;2022-10-24T16:03:16;18.10;99.90
3715;DHT22;1873;49.988;8.674;2022-10-24T16:05:50;18.00;99.90
3715;DHT22;1873;49.988;8.674;2022-10-24T16:08:19;18.00;99.90
3715;DHT22;1873;49.988;8.674;2022-10-24T16:10:52;18.00;99.90
3715;DHT22;1873;49.988;8.674;2022-10-24T16:13:21;18.00;99.90
3715;DHT22;1873;49.988;8.674;2022-10-24T16:15:50;17.90;99.90
3715;DHT22;1873;49.988;8.674;2022-10-24T16:18:18;17.90;99.90
3715;DHT22;1873;49.988;8.674;2022-10-24T16:20:47;17.90;99.90
3715;DHT22;1873;49.988;8.674;2022-10-24T16:23:15;17.80;99.90
3715;DHT22;1873;49.988;8.674;2022-10-24T16:25:44;17.80;99.90
3715;DHT22;1873;49.988;8.674;2022-10-24T16:28:14;17.80;99.90
3715;DHT22;1873;49.988;8.674;2022-10-24T16:30:49;17.70;99.90
3715;DHT22;1873;49.988;8.674;2022-10-24T16:33:18;17.70;99.90
3715;DHT22;1873;49.988;8.674;2022-10-24T16:35:48;17.70;99.90
3715;DHT22;1873;49.988;8.674;2022-10-24T16:38:17;17.70;99.90
3715;DHT22;1873;49.988;8.674;2022-10-24T16:40:46;17.70;99.90
3715;DHT22;1873;49.988;8.674;2022-10-24T16:43:18;17.60;99.90
3715;DHT22;1873;49.988;8.674;2022-10-24T16:45:55;17.60;99.90
3715;DHT22;1873;49.988;8.674;2022-10-24T16:48:23;17.60;99.90
3715;DHT22;1873;49.988;8.674;2022-10-24T16:50:52;17.60;99.90
3715;DHT22;1873;49.988;8.674;2022-10-24T16:53:20;17.50;99.90
3715;DHT22;1873;49.988;8.674;2022-10-24T16:55:51;17.50;99.90
3715;DHT22;1873;49.988;8.674;2022-10-24T16:58:21;17.50;99.90
3715;DHT22;1873;49.988;8.674;2022-10-24T17:00:50;17.50;99.90
3715;DHT22;1873;49.988;8.674;2022-10-24T17:03:18;17.50;99.90
3715;DHT22;1873;49.988;8.674;2022-10-24T17:05:48;17.50;99.90
3715;DHT22;1873;49.988;8.674;2022-10-24T17:08:49;17.40;99.90
3715;DHT22;1873;49.988;8.674;2022-10-24T17:11:18;17.40;99.90
3715;DHT22;1873;49.988;8.674;2022-10-24T17:14:08;17.30;99.90
3715;DHT22;1873;49.988;8.674;2022-10-24T17:16:40;17.30;99.90
3715;DHT22;1873;49.988;8.674;2022-10-24T17:19:08;17.30;99.90
3715;DHT22;1873;49.988;8.674;2022-10-24T17:22:08;17.20;99.90
3715;DHT22;1873;49.988;8.674;2022-10-24T17:24:38;17.20;99.90
3715;DHT22;1873;49.988;8.674;2022-10-24T17:27:09;17.20;99.90
3715;DHT22;1873;49.988;8.674;2022-10-24T17:29:40;17.20;99.90
3715;DHT22;1873;49.988;8.674;2022-10-24T17:32:11;17.10;99.90
3715;DHT22;1873;49.988;8.674;2022-10-24T17:34:42;17.10;99.90
3715;DHT22;1873;49.988;8.674;2022-10-24T17:37:18;17.20;99.90
3715;DHT22;1873;49.988;8.674;2022-10-24T17:39:48;17.10;99.90
3715;DHT22;1873;49.988;8.674;2022-10-24T17:42:18;17.10;99.90
3715;DHT22;1873;49.988;8.674;2022-10-24T17:44:49;17.10;99.90
3715;DHT22;1873;49.988;8.674;2022-10-24T17:47:17;17.00;99.90
3715;DHT22;1873;49.988;8.674;2022-10-24T17:49:45;17.00;99.90
3715;DHT22;1873;49.988;8.674;2022-10-24T17:52:22;16.90;99.90
3715;DHT22;1873;49.988;8.674;2022-10-24T17:54:51;16.90;99.90
3715;DHT22;1873;49.988;8.674;2022-10-24T17:57:20;16.90;99.90
3715;DHT22;1873;49.988;8.674;2022-10-24T17:59:52;16.90;99.90
3715;DHT22;1873;49.988;8.674;2022-10-24T18:02:32;16.90;99.90
3715;DHT22;1873;49.988;8.674;2022-10-24T18:05:37;16.90;99.90
3715;DHT22;1873;49.988;8.674;2022-10-24T18:09:08;16.90;99.90
3715;DHT22;1873;49.988;8.674;2022-10-24T18:11:55;16.80;99.90
3715;DHT22;1873;49.988;8.674;2022-10-24T18:14:34;16.80;99.90
3715;DHT22;1873;49.988;8.674;2022-10-24T18:17:05;16.80;99.90
3715;DHT22;1873;49.988;8.674;2022-10-24T18:19:35;16.80;99.90
3715;DHT22;1873;49.988;8.674;2022-10-24T18:22:24;16.70;99.90
3715;DHT22;1873;49.988;8.674;2022-10-24T18:25:27;16.70;99.90
3715;DHT22;1873;49.988;8.674;2022-10-24T18:29:14;16.60;99.90
3715;DHT22;1873;49.988;8.674;2022-10-24T18:31:55;16.50;99.90
3715;DHT22;1873;49.988;8.674;2022-10-24T18:34:26;16.50;99.90
3715;DHT22;1873;49.988;8.674;2022-10-24T18:36:56;16.50;99.90
3715;DHT22;1873;49.988;8.674;2022-10-24T18:39:26;16.50;99.90
3715;DHT22;1873;49.988;8.674;2022-10-24T18:42:03;16.50;99.90
3715;DHT22;1873;49.988;8.674;2022-10-24T18:44:33;16.50;99.90
3715;DHT22;1873;49.988;8.674;2022-10-24T18:47:08;16.50;99.90
3715;DHT22;1873;49.988;8.674;2022-10-24T18:49:56;16.50;99.90
3715;DHT22;1873;49.988;8.674;2022-10-24T18:52:34;16.50;99.90
3715;DHT22;1873;49.988;8.674;2022-10-24T18:55:12;16.50;99.90
3715;DHT22;1873;49.988;8.674;2022-10-24T18:57:42;16.50;99.90
3715;DHT22;1873;49.988;8.674;2022-10-24T19:00:14;16.50;99.90